Time;durP1;ratioP1;P1;durP2;ratioP2;P2;SDS_P1;SDS_P2;PMS_P1;PMS_P2;Temp;Humidity;BMP_temperature;BMP_pressure;BME280_temperature;BME280_humidity;BME280_pressure;Samples;Min_cycle;Max_cycle;Signal;HPM_P1;HPM_P2
2023/07/31 00:01:19;;;;;;;1999.90;999.90;;;16.30;99.90;;;;;;5036320;28;20560;-69
2023/07/31 00:03:46;;;;;;;1999.90;999.90;;;16.30;99.90;;;;;;5049963;28;20032;-69
2023/07/31 00:06:12;;;;;;;1999.90;999.90;;;16.30;99.90;;;;;;5035697;28;20049;-68
2023/07/31 00:08:37;;;;;;;1999.90;999.90;;;16.30;99.90;;;;;;5047316;28;20554;-68
2023/07/31 00:11:03;;;;;;;1999.90;999.90;;;16.20;99.90;;;;;;5031677;28;20053;-68
2023/07/31 00:13:29;;;;;;;1999.90;999.90;;;16.20;99.90;;;;;;5040257;28;20049;-68
2023/07/31 00:15:54;;;;;;;1999.90;999.90;;;16.20;99.90;;;;;;5049602;28;20519;-68
2023/07/31 00:18:20;;;;;;;1999.90;999.90;;;16.20;99.90;;;;;;5047405;28;20041;-68
2023/07/31 00:20:46;;;;;;;1999.90;999.90;;;16.10;99.90;;;;;;5042803;28;20048;-68
2023/07/31 00:23:11;;;;;;;1999.90;999.90;;;16.10;99.90;;;;;;5035605;28;20040;-68
2023/07/31 00:25:37;;;;;;;1999.90;999.90;;;16.00;99.90;;;;;;5039712;28;20099;-68
2023/07/31 00:28:02;;;;;;;1999.90;999.90;;;16.00;99.90;;;;;;5031938;28;20051;-69
2023/07/31 00:30:28;;;;;;;1999.90;999.90;;;16.00;99.90;;;;;;5048806;28;20412;-68
2023/07/31 00:32:54;;;;;;;1999.90;999.90;;;15.90;99.90;;;;;;5050276;28;20037;-68
2023/07/31 00:35:19;;;;;;;1999.90;999.90;;;15.90;99.90;;;;;;5044173;28;20641;-68
2023/07/31 00:37:45;;;;;;;1999.90;999.90;;;15.90;99.90;;;;;;5048750;28;20047;-68
2023/07/31 00:40:10;;;;;;;1999.90;999.90;;;15.90;99.90;;;;;;5057278;28;20412;-68
2023/07/31 00:42:36;;;;;;;1999.90;999.90;;;15.80;99.90;;;;;;5049134;28;20099;-68
2023/07/31 00:45:02;;;;;;;1999.90;999.90;;;15.80;99.90;;;;;;5048371;28;20045;-68
2023/07/31 00:47:27;;;;;;;1999.90;999.90;;;15.80;99.90;;;;;;5045883;28;20473;-67
2023/07/31 00:49:53;;;;;;;1999.90;999.90;;;15.70;99.90;;;;;;5048738;28;20033;-67
2023/07/31 00:52:19;;;;;;;1999.90;999.90;;;15.70;99.90;;;;;;5032494;28;20040;-68
2023/07/31 00:54:45;;;;;;;1999.90;999.90;;;15.70;99.90;;;;;;5048377;28;20037;-67
2023/07/31 00:57:11;;;;;;;1999.90;999.90;;;15.60;99.90;;;;;;5036526;28;20562;-68
2023/07/31 00:59:36;;;;;;;1999.90;999.90;;;15.60;99.90;;;;;;5048618;28;20076;-68
2023/07/31 01:02:03;;;;;;;1999.90;999.90;;;15.60;99.90;;;;;;5045223;28;20037;-68
2023/07/31 01:04:29;;;;;;;1999.90;999.90;;;15.60;99.90;;;;;;5015604;28;20473;-67
2023/07/31 01:07:34;;;;;;;1999.90;999.90;;;15.50;99.90;;;;;;5039746;28;20041;-68
2023/07/31 01:10:20;;;;;;;1999.90;999.90;;;15.60;99.90;;;;;;5006573;28;20124;-68
2023/07/31 01:12:47;;;;;;;1999.90;999.90;;;15.50;99.90;;;;;;5040890;28;20081;-68
2023/07/31 01:15:14;;;;;;;1999.90;999.90;;;15.50;99.90;;;;;;5047302;28;20052;-68
2023/07/31 01:17:41;;;;;;;1999.90;999.90;;;15.50;99.90;;;;;;5043896;28;20040;-68
2023/07/31 01:20:27;;;;;;;1999.90;999.90;;;15.50;99.90;;;;;;5042943;28;20056;-68
2023/07/31 01:23:18;;;;;;;1999.90;999.90;;;15.50;99.90;;;;;;5031338;28;20036;-68
2023/07/31 01:25:54;;;;;;;1999.90;999.90;;;15.50;99.90;;;;;;5047055;28;20550;-68
2023/07/31 01:28:25;;;;;;;1999.90;999.90;;;15.50;99.90;;;;;;5030039;28;20049;-68
2023/07/31 01:30:51;;;;;;;1999.90;999.90;;;15.50;99.90;;;;;;5044414;28;20037;-68
2023/07/31 01:33:17;;;;;;;1999.90;999.90;;;15.50;99.90;;;;;;5038039;28;20045;-68
2023/07/31 01:35:45;;;;;;;1999.90;999.90;;;15.50;99.90;;;;;;5034120;28;20485;-67
2023/07/31 01:38:11;;;;;;;1999.90;999.90;;;15.50;99.90;;;;;;5037299;28;20052;-68
2023/07/31 01:40:37;;;;;;;1999.90;999.90;;;15.50;99.90;;;;;;5017337;28;20125;-68
2023/07/31 01:43:02;;;;;;;1999.90;999.90;;;15.50;99.90;;;;;;5047067;28;20123;-68
2023/07/31 01:45:28;;;;;;;1999.90;999.90;;;15.50;99.90;;;;;;5042836;28;20044;-69
2023/07/31 01:47:54;;;;;;;1999.90;999.90;;;15.50;99.90;;;;;;5020660;28;20041;-68
2023/07/31 01:50:19;;;;;;;1999.90;999.90;;;15.50;99.90;;;;;;5034239;28;20041;-68
2023/07/31 01:52:45;;;;;;;1999.90;999.90;;;15.60;99.90;;;;;;5047897;28;20052;-68
2023/07/31 01:55:10;;;;;;;1999.90;999.90;;;15.60;99.90;;;;;;5048286;28;20548;-68
2023/07/31 01:57:37;;;;;;;1999.90;999.90;;;15.60;99.90;;;;;;5037430;28;20517;-68
2023/07/31 02:00:03;;;;;;;1999.90;999.90;;;15.60;99.90;;;;;;5036054;28;20517;-68
2023/07/31 02:02:29;;;;;;;1999.90;999.90;;;15.60;99.90;;;;;;5046306;28;20053;-68
2023/07/31 02:04:54;;;;;;;1999.90;999.90;;;15.60;99.90;;;;;;5048465;28;20061;-68
2023/07/31 02:07:20;;;;;;;1999.90;999.90;;;15.60;99.90;;;;;;5033130;28;20037;-68
2023/07/31 02:09:47;;;;;;;1999.90;999.90;;;15.60;99.90;;;;;;5046391;28;20082;-68
2023/07/31 02:12:14;;;;;;;1999.90;999.90;;;15.60;99.90;;;;;;5030998;28;20443;-68
2023/07/31 02:14:40;;;;;;;1999.90;999.90;;;15.60;99.90;;;;;;5042444;28;20037;-68
2023/07/31 02:17:06;;;;;;;1999.90;999.90;;;15.60;99.90;;;;;;5050655;28;20049;-68
2023/07/31 02:19:32;;;;;;;1999.90;999.90;;;15.60;99.90;;;;;;5043273;28;20568;-68
2023/07/31 02:21:57;;;;;;;1999.90;999.90;;;15.50;99.90;;;;;;5045428;28;20123;-68
2023/07/31 02:24:24;;;;;;;1999.90;999.90;;;15.60;99.90;;;;;;5046141;28;20075;-68
2023/07/31 02:26:49;;;;;;;1999.90;999.90;;;15.50;99.90;;;;;;5048812;28;20098;-68
2023/07/31 02:29:15;;;;;;;1999.90;999.90;;;15.50;99.90;;;;;;5036597;28;20041;-68
2023/07/31 02:31:41;;;;;;;1999.90;999.90;;;15.50;99.90;;;;;;5040074;28;20473;-68
2023/07/31 02:34:06;;;;;;;1999.90;999.90;;;15.50;99.90;;;;;;5033447;28;20040;-68
2023/07/31 02:36:32;;;;;;;1999.90;999.90;;;15.50;99.90;;;;;;5040654;28;20037;-68
2023/07/31 02:38:57;;;;;;;1999.90;999.90;;;15.50;99.90;;;;;;5035324;28;20171;-68
2023/07/31 02:41:23;;;;;;;1999.90;999.90;;;15.50;99.90;;;;;;5040925;28;20047;-68
2023/07/31 02:43:49;;;;;;;1999.90;999.90;;;15.50;99.90;;;;;;5042825;28;20832;-68
2023/07/31 02:46:14;;;;;;;1999.90;999.90;;;15.50;99.90;;;;;;5047669;28;20036;-68
2023/07/31 02:48:40;;;;;;;1999.90;999.90;;;15.50;99.90;;;;;;5048395;28;20048;-68
2023/07/31 02:51:05;;;;;;;1999.90;999.90;;;15.50;99.90;;;;;;5035925;28;20121;-68
2023/07/31 02:53:31;;;;;;;1999.90;999.90;;;15.50;99.90;;;;;;5042900;28;20553;-68
2023/07/31 02:55:56;;;;;;;1999.90;999.90;;;15.50;99.90;;;;;;5046142;28;20036;-68
2023/07/31 02:58:22;;;;;;;1999.90;999.90;;;15.50;99.90;;;;;;5047679;28;20473;-68
2023/07/31 03:00:47;;;;;;;1999.90;999.90;;;15.50;99.90;;;;;;5047307;28;20048;-68
2023/07/31 03:03:13;;;;;;;1999.90;999.90;;;15.50;99.90;;;;;;5039711;28;20094;-68
2023/07/31 03:05:39;;;;;;;1999.90;999.90;;;15.50;99.90;;;;;;5040820;28;20504;-68
2023/07/31 03:08:04;;;;;;;1999.90;999.90;;;15.50;99.90;;;;;;5043585;28;20049;-68
2023/07/31 03:10:30;;;;;;;1999.90;999.90;;;15.50;99.90;;;;;;5040183;28;20061;-68
2023/07/31 03:12:56;;;;;;;1999.90;999.90;;;15.50;99.90;;;;;;5025736;28;20406;-68
2023/07/31 03:15:21;;;;;;;1999.90;999.90;;;15.50;99.90;;;;;;5043221;28;20077;-68
2023/07/31 03:17:47;;;;;;;1999.90;999.90;;;15.50;99.90;;;;;;5033718;28;20417;-68
2023/07/31 03:20:12;;;;;;;1999.90;999.90;;;15.50;99.90;;;;;;5027312;28;20041;-68
2023/07/31 03:22:38;;;;;;;1999.90;999.90;;;15.50;99.90;;;;;;5040427;28;20045;-68
2023/07/31 03:25:04;;;;;;;1999.90;999.90;;;15.50;99.90;;;;;;5040333;28;20041;-68
2023/07/31 03:27:30;;;;;;;1999.90;999.90;;;15.50;99.90;;;;;;5052183;28;20044;-68
2023/07/31 03:29:55;;;;;;;1999.90;999.90;;;15.40;99.90;;;;;;5044282;28;20033;-68
2023/07/31 03:32:21;;;;;;;1999.90;999.90;;;15.50;99.90;;;;;;5044795;28;20489;-68
2023/07/31 03:34:46;;;;;;;1999.90;999.90;;;15.50;99.90;;;;;;5045432;28;20040;-68
2023/07/31 03:37:12;;;;;;;1999.90;999.90;;;15.50;99.90;;;;;;5045206;28;20293;-68
2023/07/31 03:39:38;;;;;;;1999.90;999.90;;;15.50;99.90;;;;;;5043354;28;20181;-68
2023/07/31 03:42:04;;;;;;;1999.90;999.90;;;15.40;99.90;;;;;;5044927;28;20429;-68
2023/07/31 03:44:29;;;;;;;1999.90;999.90;;;15.50;99.90;;;;;;5049578;28;20045;-68
2023/07/31 03:46:55;;;;;;;1999.90;999.90;;;15.50;99.90;;;;;;5044780;28;20040;-68
2023/07/31 03:49:20;;;;;;;1999.90;999.90;;;15.40;99.90;;;;;;5042306;28;20045;-68
2023/07/31 03:51:46;;;;;;;1999.90;999.90;;;15.40;99.90;;;;;;5050574;28;20072;-68
2023/07/31 03:54:13;;;;;;;1999.90;999.90;;;15.50;99.90;;;;;;5030098;28;20049;-68
2023/07/31 03:56:38;;;;;;;1999.90;999.90;;;15.50;99.90;;;;;;5045182;28;20052;-68
2023/07/31 03:59:04;;;;;;;1999.90;999.90;;;15.50;99.90;;;;;;5050164;28;20045;-68
2023/07/31 04:01:30;;;;;;;1999.90;999.90;;;15.50;99.90;;;;;;5064112;28;20378;-68
2023/07/31 04:03:55;;;;;;;1999.90;999.90;;;15.50;99.90;;;;;;5035210;28;20042;-68
2023/07/31 04:06:21;;;;;;;1999.90;999.90;;;15.50;99.90;;;;;;5004448;28;1113962;-68
2023/07/31 04:08:47;;;;;;;1999.90;999.90;;;15.50;99.90;;;;;;5048264;28;20295;-68
2023/07/31 04:11:12;;;;;;;1999.90;999.90;;;15.50;99.90;;;;;;5050008;28;20040;-68
2023/07/31 04:13:38;;;;;;;1999.90;999.90;;;15.50;99.90;;;;;;5026288;28;20045;-68
2023/07/31 04:16:04;;;;;;;1999.90;999.90;;;15.50;99.90;;;;;;5031695;28;20045;-68
2023/07/31 04:18:33;;;;;;;1999.90;999.90;;;15.50;99.90;;;;;;5049844;28;20123;-68
2023/07/31 04:21:01;;;;;;;1999.90;999.90;;;15.50;99.90;;;;;;5043951;28;20033;-68
2023/07/31 04:23:26;;;;;;;1999.90;999.90;;;15.60;99.90;;;;;;5045023;28;20044;-68
2023/07/31 04:25:52;;;;;;;1999.90;999.90;;;15.50;99.90;;;;;;5029185;28;20068;-68
2023/07/31 04:28:17;;;;;;;1999.90;999.90;;;15.60;99.90;;;;;;5047987;28;20417;-68
2023/07/31 04:30:43;;;;;;;1999.90;999.90;;;15.60;99.90;;;;;;5047679;28;20068;-68
2023/07/31 04:33:09;;;;;;;1999.90;999.90;;;15.60;99.90;;;;;;5042662;28;20043;-68
2023/07/31 04:35:35;;;;;;;1999.90;999.90;;;15.60;99.90;;;;;;5045466;28;20150;-68
2023/07/31 04:38:00;;;;;;;1999.90;999.90;;;15.60;99.90;;;;;;5038825;28;20045;-68
2023/07/31 04:40:26;;;;;;;1999.90;999.90;;;15.60;99.90;;;;;;5039424;28;20068;-68
2023/07/31 04:42:51;;;;;;;1999.90;999.90;;;15.60;99.90;;;;;;5041518;28;20049;-68
2023/07/31 04:45:17;;;;;;;1999.90;999.90;;;15.60;99.90;;;;;;5037465;28;20424;-68
2023/07/31 04:47:43;;;;;;;1999.90;999.90;;;15.70;99.90;;;;;;5047712;28;20033;-68
2023/07/31 04:50:09;;;;;;;1999.90;999.90;;;15.60;99.90;;;;;;5044145;28;20444;-68
2023/07/31 04:52:34;;;;;;;1999.90;999.90;;;15.60;99.90;;;;;;5034385;28;20924;-68
2023/07/31 04:55:00;;;;;;;1999.90;999.90;;;15.60;99.90;;;;;;5037027;28;20045;-68
2023/07/31 04:57:25;;;;;;;1999.90;999.90;;;15.60;99.90;;;;;;5048267;28;20036;-68
2023/07/31 04:59:51;;;;;;;1999.90;999.90;;;15.60;99.90;;;;;;5049244;28;20473;-68
2023/07/31 05:02:16;;;;;;;1999.90;999.90;;;15.60;99.90;;;;;;5042686;28;20065;-69
2023/07/31 05:04:42;;;;;;;1999.90;999.90;;;15.60;99.90;;;;;;5032754;28;20038;-68
2023/07/31 05:07:08;;;;;;;1999.90;999.90;;;15.60;99.90;;;;;;5031007;28;20127;-68
2023/07/31 05:09:33;;;;;;;1999.90;999.90;;;15.60;99.90;;;;;;5043808;28;20045;-68
2023/07/31 05:11:59;;;;;;;1999.90;999.90;;;15.60;99.90;;;;;;5041504;28;20119;-69
2023/07/31 05:14:26;;;;;;;1999.90;999.90;;;15.60;99.90;;;;;;5048793;28;20041;-68
2023/07/31 05:16:51;;;;;;;1999.90;999.90;;;15.60;99.90;;;;;;5036594;28;20493;-69
2023/07/31 05:19:17;;;;;;;1999.90;999.90;;;15.60;99.90;;;;;;5038467;28;20083;-68
2023/07/31 05:21:43;;;;;;;1999.90;999.90;;;15.60;99.90;;;;;;5044311;28;20164;-69
2023/07/31 05:24:09;;;;;;;1999.90;999.90;;;15.70;99.90;;;;;;5026522;28;20048;-69
2023/07/31 05:26:35;;;;;;;1999.90;999.90;;;15.70;99.90;;;;;;5028124;28;20045;-69
2023/07/31 05:29:00;;;;;;;1999.90;999.90;;;15.80;99.90;;;;;;5045950;28;20056;-69
2023/07/31 05:31:26;;;;;;;1999.90;999.90;;;15.80;99.90;;;;;;5048975;28;20041;-69
2023/07/31 05:33:52;;;;;;;1999.90;999.90;;;15.80;99.90;;;;;;5043643;28;20240;-69
2023/07/31 05:36:17;;;;;;;1999.90;999.90;;;15.90;99.90;;;;;;5040368;28;20075;-69
2023/07/31 05:38:46;;;;;;;1999.90;999.90;;;15.90;99.90;;;;;;5037788;28;20406;-69
2023/07/31 05:41:13;;;;;;;1999.90;999.90;;;15.90;99.90;;;;;;5044857;28;20041;-69
2023/07/31 05:43:38;;;;;;;1999.90;999.90;;;15.90;99.90;;;;;;5050926;28;20085;-69
2023/07/31 05:46:04;;;;;;;1999.90;999.90;;;15.90;99.90;;;;;;5032698;28;20087;-69
2023/07/31 05:48:30;;;;;;;1999.90;999.90;;;15.90;99.90;;;;;;5042257;28;20052;-69
2023/07/31 05:50:55;;;;;;;1999.90;999.90;;;16.00;99.90;;;;;;5049023;28;20121;-69
2023/07/31 05:53:21;;;;;;;1999.90;999.90;;;16.00;99.90;;;;;;5046362;28;20080;-69
2023/07/31 05:55:46;;;;;;;1999.90;999.90;;;16.00;99.90;;;;;;5053526;28;20048;-69
2023/07/31 05:58:12;;;;;;;1999.90;999.90;;;16.00;99.90;;;;;;5039251;28;20167;-68
2023/07/31 06:00:38;;;;;;;1999.90;999.90;;;16.00;99.90;;;;;;5047215;28;20048;-69
2023/07/31 06:03:04;;;;;;;1999.90;999.90;;;16.10;99.90;;;;;;5046129;28;20044;-69
2023/07/31 06:05:30;;;;;;;1999.90;999.90;;;16.00;99.90;;;;;;5043839;28;20052;-69
2023/07/31 06:07:55;;;;;;;1999.90;999.90;;;16.10;99.90;;;;;;5036560;28;20052;-70
2023/07/31 06:10:21;;;;;;;1999.90;999.90;;;16.20;99.90;;;;;;5039802;28;20033;-68
2023/07/31 06:12:47;;;;;;;1999.90;999.90;;;16.20;99.90;;;;;;5040509;28;20466;-70
2023/07/31 06:15:13;;;;;;;1999.90;999.90;;;16.20;99.90;;;;;;5047492;28;20545;-69
2023/07/31 06:17:38;;;;;;;1999.90;999.90;;;16.30;99.90;;;;;;5045075;28;20040;-69
2023/07/31 06:20:06;;;;;;;1999.90;999.90;;;16.40;99.90;;;;;;5028627;28;20048;-69
2023/07/31 06:22:32;;;;;;;1999.90;999.90;;;16.40;99.90;;;;;;5028604;28;20037;-69
2023/07/31 06:24:58;;;;;;;1999.90;999.90;;;16.50;99.90;;;;;;5047047;28;20523;-69
2023/07/31 06:27:24;;;;;;;1999.90;999.90;;;16.60;99.90;;;;;;5014104;28;20502;-69
2023/07/31 06:29:49;;;;;;;1999.90;999.90;;;16.70;99.90;;;;;;5035070;28;20044;-69
2023/07/31 06:32:15;;;;;;;1999.90;999.90;;;16.80;99.90;;;;;;5043553;28;20370;-69
2023/07/31 06:34:40;;;;;;;1999.90;999.90;;;16.80;99.90;;;;;;5043530;28;20148;-69
2023/07/31 06:37:06;;;;;;;1999.90;999.90;;;16.90;99.90;;;;;;5038313;28;20041;-69
2023/07/31 06:39:32;;;;;;;1999.90;999.90;;;17.00;99.90;;;;;;5046466;28;20493;-69
2023/07/31 06:41:57;;;;;;;1999.90;999.90;;;17.10;99.90;;;;;;5037539;28;20051;-69
2023/07/31 06:44:23;;;;;;;1999.90;999.90;;;17.20;99.90;;;;;;5046745;28;20202;-69
2023/07/31 06:46:48;;;;;;;1999.90;999.90;;;17.30;99.90;;;;;;5042206;28;20049;-69
2023/07/31 06:49:17;;;;;;;1999.90;999.90;;;17.40;99.90;;;;;;5042288;28;20029;-69
2023/07/31 06:51:43;;;;;;;1999.90;999.90;;;17.40;99.90;;;;;;5041225;28;20064;-69
2023/07/31 06:54:09;;;;;;;1999.90;999.90;;;17.60;99.90;;;;;;5042576;28;20047;-69
2023/07/31 06:56:35;;;;;;;1999.90;999.90;;;17.60;99.90;;;;;;5038589;28;20443;-68
2023/07/31 06:59:00;;;;;;;1999.90;999.90;;;17.70;99.90;;;;;;5022210;28;20112;-69
2023/07/31 07:01:27;;;;;;;1999.90;999.90;;;17.70;99.90;;;;;;5047200;28;20084;-69
2023/07/31 07:03:53;;;;;;;1999.90;999.90;;;17.70;99.90;;;;;;5046438;28;20106;-69
2023/07/31 07:06:19;;;;;;;1999.90;999.90;;;17.70;99.90;;;;;;5047394;28;20469;-69
2023/07/31 07:08:44;;;;;;;1999.90;999.90;;;17.70;99.90;;;;;;5026367;28;20080;-69
2023/07/31 07:11:10;;;;;;;1999.90;999.90;;;17.60;99.90;;;;;;5042649;28;20041;-68
2023/07/31 07:13:36;;;;;;;1999.90;999.90;;;17.60;99.90;;;;;;5024557;28;20129;-69
2023/07/31 07:16:01;;;;;;;1999.90;999.90;;;17.60;99.90;;;;;;5055215;28;20493;-69
2023/07/31 07:18:27;;;;;;;1999.90;999.90;;;17.60;99.90;;;;;;5040870;28;20056;-69
2023/07/31 07:20:54;;;;;;;1999.90;999.90;;;17.60;99.90;;;;;;5048963;28;20057;-69
2023/07/31 07:23:20;;;;;;;1999.90;999.90;;;17.50;99.90;;;;;;5050290;28;20060;-69
2023/07/31 07:25:47;;;;;;;1999.90;999.90;;;17.50;99.90;;;;;;5046581;28;20045;-69
2023/07/31 07:28:13;;;;;;;1999.90;999.90;;;17.40;99.90;;;;;;5051135;28;20064;-69
2023/07/31 07:30:39;;;;;;;1999.90;999.90;;;17.40;99.90;;;;;;5049300;28;20087;-69
2023/07/31 07:33:04;;;;;;;1999.90;999.90;;;17.40;99.90;;;;;;5049692;28;20534;-69
2023/07/31 07:35:39;;;;;;;1999.90;999.90;;;17.40;99.90;;;;;;5049837;28;20865;-69
2023/07/31 07:38:04;;;;;;;1999.90;999.90;;;17.40;99.90;;;;;;5054992;28;20045;-69
2023/07/31 07:40:30;;;;;;;1999.90;999.90;;;17.40;99.90;;;;;;5047922;28;20095;-69
2023/07/31 07:42:55;;;;;;;1999.90;999.90;;;17.40;99.90;;;;;;5034017;28;20382;-68
2023/07/31 07:45:24;;;;;;;1999.90;999.90;;;17.30;99.90;;;;;;5050797;28;20044;-68
2023/07/31 07:47:49;;;;;;;1999.90;999.90;;;17.30;99.90;;;;;;5049560;28;20049;-68
2023/07/31 07:50:18;;;;;;;1999.90;999.90;;;17.20;99.90;;;;;;5038316;28;20079;-68
2023/07/31 07:52:44;;;;;;;1999.90;999.90;;;17.30;99.90;;;;;;5047234;28;20144;-68
2023/07/31 07:55:09;;;;;;;1999.90;999.90;;;17.30;99.90;;;;;;5064125;28;20123;-68
2023/07/31 07:57:35;;;;;;;1999.90;999.90;;;17.20;99.90;;;;;;5049971;28;20136;-67
2023/07/31 08:00:01;;;;;;;1999.90;999.90;;;17.20;99.90;;;;;;5049078;28;20075;-68
2023/07/31 08:02:26;;;;;;;1999.90;999.90;;;17.10;99.90;;;;;;5044816;28;20254;-68
2023/07/31 08:04:52;;;;;;;1999.90;999.90;;;17.10;99.90;;;;;;5061412;28;20386;-69
2023/07/31 08:07:17;;;;;;;1999.90;999.90;;;17.10;99.90;;;;;;5050438;28;20393;-68
2023/07/31 08:09:43;;;;;;;1999.90;999.90;;;17.10;99.90;;;;;;5056108;28;20044;-68
2023/07/31 08:12:08;;;;;;;1999.90;999.90;;;17.10;99.90;;;;;;5045731;28;20044;-68
2023/07/31 08:14:35;;;;;;;1999.90;999.90;;;17.20;99.90;;;;;;5040079;28;20057;-68
2023/07/31 08:17:00;;;;;;;1999.90;999.90;;;17.30;99.90;;;;;;5027985;28;20044;-68
2023/07/31 08:19:26;;;;;;;1999.90;999.90;;;17.30;99.90;;;;;;5034375;28;20045;-68
2023/07/31 08:21:52;;;;;;;1999.90;999.90;;;17.30;99.90;;;;;;5048826;28;20075;-69
2023/07/31 08:24:17;;;;;;;1999.90;999.90;;;17.30;99.90;;;;;;5047296;28;20048;-68
2023/07/31 08:26:43;;;;;;;1999.90;999.90;;;17.30;99.90;;;;;;5049907;28;20029;-69
2023/07/31 08:29:08;;;;;;;1999.90;999.90;;;17.40;99.90;;;;;;5050719;28;20044;-68
2023/07/31 08:31:34;;;;;;;1999.90;999.90;;;17.40;99.90;;;;;;5046303;28;20443;-69
2023/07/31 08:34:00;;;;;;;1999.90;999.90;;;17.50;99.90;;;;;;5048417;28;20087;-69
2023/07/31 08:36:26;;;;;;;1999.90;999.90;;;17.60;99.90;;;;;;5048775;28;20441;-68
2023/07/31 08:38:51;;;;;;;1999.90;999.90;;;17.60;99.90;;;;;;5043535;28;20183;-69
2023/07/31 08:41:17;;;;;;;1999.90;999.90;;;17.70;99.90;;;;;;5054321;28;20052;-68
2023/07/31 08:43:45;;;;;;;1999.90;999.90;;;17.70;99.90;;;;;;5043904;28;20127;-68
2023/07/31 08:46:11;;;;;;;1999.90;999.90;;;17.70;99.90;;;;;;5051286;28;20056;-68
2023/07/31 08:48:38;;;;;;;1999.90;999.90;;;17.80;99.90;;;;;;5046431;28;20041;-68
2023/07/31 08:51:04;;;;;;;1999.90;999.90;;;17.80;99.90;;;;;;5046871;28;20036;-68
2023/07/31 08:53:30;;;;;;;1999.90;999.90;;;17.90;99.90;;;;;;5059792;28;20037;-68
2023/07/31 08:55:58;;;;;;;1999.90;999.90;;;17.90;99.90;;;;;;5043712;28;20036;-68
2023/07/31 08:58:25;;;;;;;1999.90;999.90;;;18.00;99.90;;;;;;5048981;28;20409;-68
2023/07/31 09:00:52;;;;;;;1999.90;999.90;;;18.00;99.90;;;;;;5044774;28;20041;-69
2023/07/31 09:03:18;;;;;;;1999.90;999.90;;;18.00;99.90;;;;;;5034830;28;20448;-68
2023/07/31 09:05:46;;;;;;;1999.90;999.90;;;17.90;99.90;;;;;;5048742;28;20041;-68
2023/07/31 09:08:13;;;;;;;1999.90;999.90;;;17.80;99.90;;;;;;5020367;28;20079;-67
2023/07/31 09:10:43;;;;;;;1999.90;999.90;;;17.80;99.90;;;;;;5036478;28;20493;-68
2023/07/31 09:13:10;;;;;;;1999.90;999.90;;;17.80;99.90;;;;;;5045633;28;20056;-68
2023/07/31 09:15:37;;;;;;;1999.90;999.90;;;17.80;99.90;;;;;;5048414;28;20401;-67
2023/07/31 09:18:05;;;;;;;1999.90;999.90;;;17.90;99.90;;;;;;5045362;28;20508;-68
2023/07/31 09:20:31;;;;;;;1999.90;999.90;;;17.90;99.90;;;;;;5051233;28;20123;-68
2023/07/31 09:23:08;;;;;;;1999.90;999.90;;;17.90;99.90;;;;;;5041518;28;20048;-68
2023/07/31 09:25:34;;;;;;;1999.90;999.90;;;17.90;99.90;;;;;;5048180;28;20041;-68
2023/07/31 09:28:04;;;;;;;1999.90;999.90;;;17.90;99.90;;;;;;5025970;28;20453;-68
2023/07/31 09:30:30;;;;;;;1999.90;999.90;;;17.90;99.90;;;;;;5033716;28;20685;-68
2023/07/31 09:33:06;;;;;;;1999.90;999.90;;;17.80;99.90;;;;;;5036399;28;20038;-69
2023/07/31 09:35:37;;;;;;;1999.90;999.90;;;17.90;99.90;;;;;;5040520;28;20072;-68
2023/07/31 09:38:07;;;;;;;1999.90;999.90;;;17.90;99.90;;;;;;5042301;28;20133;-68
2023/07/31 09:40:44;;;;;;;1999.90;999.90;;;17.90;99.90;;;;;;5041677;28;20045;-68
2023/07/31 09:43:11;;;;;;;1999.90;999.90;;;17.90;99.90;;;;;;5029672;28;20456;-68
2023/07/31 09:45:41;;;;;;;1999.90;999.90;;;18.00;99.90;;;;;;5042279;28;20103;-68
2023/07/31 09:48:09;;;;;;;1999.90;999.90;;;18.00;99.90;;;;;;5029615;28;20497;-68
2023/07/31 09:50:37;;;;;;;1999.90;999.90;;;18.00;99.90;;;;;;5047451;28;20047;-69
2023/07/31 09:53:02;;;;;;;1999.90;999.90;;;17.90;99.90;;;;;;5025211;28;20417;-68
2023/07/31 09:55:29;;;;;;;1999.90;999.90;;;17.90;99.90;;;;;;5046084;28;20049;-68
2023/07/31 09:57:57;;;;;;;1999.90;999.90;;;18.00;99.90;;;;;;5049021;28;20041;-68
2023/07/31 10:00:25;;;;;;;1999.90;999.90;;;18.10;99.90;;;;;;5046129;28;20102;-68
2023/07/31 10:02:51;;;;;;;1999.90;999.90;;;18.20;99.90;;;;;;5055831;28;20471;-68
2023/07/31 10:05:19;;;;;;;1999.90;999.90;;;18.30;99.90;;;;;;5045319;28;20052;-68
2023/07/31 10:07:53;;;;;;;1999.90;999.90;;;18.20;99.90;;;;;;5047414;28;20413;-68
2023/07/31 10:10:21;;;;;;;1999.90;999.90;;;18.10;99.90;;;;;;5046436;28;20048;-68
2023/07/31 10:12:49;;;;;;;1999.90;999.90;;;18.10;99.90;;;;;;5046162;28;20109;-68
2023/07/31 10:15:16;;;;;;;1999.90;999.90;;;18.10;99.90;;;;;;5051359;28;20044;-68
2023/07/31 10:17:42;;;;;;;1999.90;999.90;;;18.10;99.90;;;;;;5038031;28;20055;-68
2023/07/31 10:20:08;;;;;;;1999.90;999.90;;;18.10;99.90;;;;;;5046936;28;20049;-68
2023/07/31 10:22:35;;;;;;;1999.90;999.90;;;18.20;99.90;;;;;;5046622;28;20041;-68
2023/07/31 10:25:01;;;;;;;1999.90;999.90;;;18.20;99.90;;;;;;5048499;28;20044;-68
2023/07/31 10:27:27;;;;;;;1999.90;999.90;;;18.20;99.90;;;;;;5051398;28;20393;-68
2023/07/31 10:29:55;;;;;;;1999.90;999.90;;;18.10;99.90;;;;;;5045239;28;20033;-68
2023/07/31 10:32:22;;;;;;;1999.90;999.90;;;18.20;99.90;;;;;;5046067;28;20045;-68
2023/07/31 10:34:49;;;;;;;1999.90;999.90;;;18.20;99.90;;;;;;5040644;28;20483;-68
2023/07/31 10:37:35;;;;;;;1999.90;999.90;;;18.30;99.90;;;;;;5058965;28;20051;-68
2023/07/31 10:40:06;;;;;;;1999.90;999.90;;;18.60;99.90;;;;;;5039392;28;20075;-68
2023/07/31 10:42:47;;;;;;;1999.90;999.90;;;18.80;99.90;;;;;;5028099;28;20050;-68
2023/07/31 10:45:13;;;;;;;1999.90;999.90;;;19.20;99.90;;;;;;5046038;28;20472;-68
2023/07/31 10:47:46;;;;;;;1999.90;999.90;;;19.40;99.90;;;;;;5046468;28;20037;-68
2023/07/31 10:50:18;;;;;;;1999.90;999.90;;;19.60;99.90;;;;;;5044551;28;20048;-68
2023/07/31 10:52:50;;;;;;;1999.90;999.90;;;19.80;99.90;;;;;;5054040;28;20036;-68
2023/07/31 10:55:26;;;;;;;1999.90;999.90;;;19.90;99.90;;;;;;5043129;28;20493;-68
2023/07/31 10:57:53;;;;;;;1999.90;999.90;;;20.00;99.90;;;;;;5040558;28;20501;-68
2023/07/31 11:00:27;;;;;;;1999.90;999.90;;;20.00;99.90;;;;;;5013421;28;20468;-68
2023/07/31 11:03:08;;;;;;;1999.90;999.90;;;20.00;99.90;;;;;;5039720;28;20044;-68
2023/07/31 11:05:46;;;;;;;1999.90;999.90;;;19.90;99.90;;;;;;5044616;28;20405;-67
2023/07/31 11:08:14;;;;;;;1999.90;999.90;;;19.80;99.90;;;;;;5036064;28;20406;-69
2023/07/31 11:10:40;;;;;;;1999.90;999.90;;;19.80;99.90;;;;;;5044229;28;20045;-68
2023/07/31 11:13:06;;;;;;;1999.90;999.90;;;19.80;99.90;;;;;;5045011;28;20040;-68
2023/07/31 11:15:31;;;;;;;1999.90;999.90;;;19.90;99.90;;;;;;5035237;28;20033;-68
2023/07/31 11:18:00;;;;;;;1999.90;999.90;;;20.00;99.90;;;;;;5038698;28;20520;-68
2023/07/31 11:20:26;;;;;;;1999.90;999.90;;;20.10;99.90;;;;;;5040628;28;20048;-68
2023/07/31 11:22:52;;;;;;;1999.90;999.90;;;20.20;99.90;;;;;;5042443;28;20132;-68
2023/07/31 11:25:18;;;;;;;1999.90;999.90;;;20.20;99.90;;;;;;5044388;28;20124;-68
2023/07/31 11:27:44;;;;;;;1999.90;999.90;;;20.40;99.90;;;;;;5045226;28;20041;-68
2023/07/31 11:30:11;;;;;;;1999.90;999.90;;;20.40;99.90;;;;;;5045119;28;20049;-69
2023/07/31 11:32:37;;;;;;;1999.90;999.90;;;20.30;99.90;;;;;;5043899;28;20052;-68
2023/07/31 11:35:05;;;;;;;1999.90;999.90;;;20.10;99.90;;;;;;5044283;28;20093;-68
2023/07/31 11:37:41;;;;;;;1999.90;999.90;;;20.10;99.90;;;;;;5034204;28;20119;-68
2023/07/31 11:40:07;;;;;;;1999.90;999.90;;;20.00;99.90;;;;;;5037794;28;20060;-68
2023/07/31 11:42:37;;;;;;;1999.90;999.90;;;20.00;99.90;;;;;;5043890;28;20051;-69
2023/07/31 11:45:04;;;;;;;1999.90;999.90;;;19.90;99.90;;;;;;5044073;28;20041;-69
2023/07/31 11:47:34;;;;;;;1999.90;999.90;;;19.80;99.90;;;;;;5047793;28;20400;-68
2023/07/31 11:50:00;;;;;;;1999.90;999.90;;;19.80;99.90;;;;;;5039870;28;20037;-68
2023/07/31 11:52:29;;;;;;;1999.90;999.90;;;19.70;99.90;;;;;;5011733;28;20089;-68
2023/07/31 11:54:56;;;;;;;1999.90;999.90;;;19.60;99.90;;;;;;5032022;28;20044;-68
2023/07/31 11:57:22;;;;;;;1999.90;999.90;;;19.50;99.90;;;;;;5018580;28;20041;-68